createdAt,value
2023-02-16T05:50:54.249Z,25.30
2023-02-16T06:06:54.108Z,25.30
2023-02-16T08:46:52.646Z,25.42
2023-02-16T08:47:52.626Z,25.40
2023-02-16T08:49:52.618Z,25.42
2023-02-16T08:50:52.601Z,25.42
2023-02-16T08:51:52.592Z,25.43
2023-02-16T08:52:52.579Z,25.42
2023-02-16T08:53:52.576Z,25.40
2023-02-16T08:54:52.588Z,25.42
2023-02-16T08:55:52.556Z,25.42
2023-02-16T08:56:52.542Z,25.43
2023-02-16T08:57:52.534Z,25.42
2023-02-16T08:58:52.726Z,25.43
2023-02-16T08:59:52.518Z,25.42
2023-02-16T09:00:52.591Z,25.40
2023-02-16T09:01:52.497Z,25.43
2023-02-16T09:02:52.485Z,25.42
2023-02-16T09:03:52.476Z,25.44
2023-02-16T09:05:52.465Z,25.43
2023-02-16T09:06:52.503Z,25.44
2023-02-16T09:07:52.450Z,25.44
2023-02-16T09:08:52.427Z,25.42
2023-02-16T09:09:52.418Z,25.42
2023-02-16T09:10:52.450Z,25.43
2023-02-16T09:11:52.450Z,25.42
2023-02-16T09:12:52.400Z,25.44
2023-02-16T09:13:52.391Z,25.44
2023-02-16T09:14:52.376Z,25.44
2023-02-16T09:15:52.424Z,25.44
2023-02-16T09:16:52.462Z,25.44
2023-02-16T09:17:52.346Z,25.43
2023-02-16T09:18:52.342Z,25.44
2023-02-16T09:19:52.364Z,25.44
2023-02-16T09:20:52.323Z,25.44
2023-02-16T09:21:52.308Z,25.43
2023-02-16T09:23:52.301Z,25.44
2023-02-16T09:24:52.284Z,25.44
2023-02-16T09:25:52.273Z,25.46
2023-02-16T09:26:52.317Z,25.44
2023-02-16T09:27:52.268Z,25.46
2023-02-16T09:28:52.244Z,25.44
2023-02-16T09:29:52.287Z,25.44
2023-02-16T09:30:52.244Z,25.46
2023-02-16T09:31:52.299Z,25.42
2023-02-16T09:32:52.206Z,25.44
2023-02-16T09:33:52.202Z,25.44
2023-02-16T09:34:52.186Z,25.44
2023-02-16T09:35:52.179Z,25.46
2023-02-16T09:36:52.165Z,25.46
2023-02-16T09:37:52.154Z,25.43
2023-02-16T09:38:52.153Z,25.43
2023-02-16T09:39:52.142Z,25.43
2023-02-16T09:40:52.150Z,25.43
2023-02-16T09:41:52.129Z,25.44
2023-02-16T09:42:52.264Z,25.43
2023-02-16T09:43:52.102Z,25.46
2023-02-16T10:29:52.344Z,25.46
2023-02-16T10:36:54.257Z,25.47
2023-02-16T11:10:51.301Z,25.50
2023-02-16T19:39:46.577Z,25.33
2023-02-16T19:55:46.412Z,25.34
2023-02-16T20:08:46.297Z,25.34
2023-02-16T20:15:46.333Z,25.33
2023-02-16T20:28:46.116Z,25.33
2023-02-16T21:10:45.746Z,25.13
2023-02-16T22:52:44.777Z,25.15
2023-02-16T23:22:44.496Z,25.13
2023-02-16T23:40:44.324Z,25.13
2023-02-16T23:44:44.283Z,25.16
